sensor_id;sensor_type;location;lat;lon;timestamp;P1;durP1;ratioP1;P2;durP2;ratioP2
40907;SDS011;51055;59.436;24.778;2022-12-10T00:01:31;8.68;;;3.45;;
40907;SDS011;51055;59.436;24.778;2022-12-10T00:03:59;6.18;;;2.75;;
40907;SDS011;51055;59.436;24.778;2022-12-10T00:06:28;6.43;;;3.07;;
40907;SDS011;51055;59.436;24.778;2022-12-10T00:08:59;6.78;;;3.40;;
40907;SDS011;51055;59.436;24.778;2022-12-10T00:11:28;7.45;;;3.25;;
40907;SDS011;51055;59.436;24.778;2022-12-10T00:13:57;7.10;;;3.60;;
40907;SDS011;51055;59.436;24.778;2022-12-10T00:18:54;7.47;;;3.55;;
40907;SDS011;51055;59.436;24.778;2022-12-10T00:21:24;6.30;;;3.13;;
40907;SDS011;51055;59.436;24.778;2022-12-10T00:23:54;7.50;;;3.78;;
40907;SDS011;51055;59.436;24.778;2022-12-10T00:28:54;6.30;;;3.28;;
40907;SDS011;51055;59.436;24.778;2022-12-10T00:31:27;7.28;;;3.72;;
40907;SDS011;51055;59.436;24.778;2022-12-10T00:33:57;8.20;;;3.50;;
40907;SDS011;51055;59.436;24.778;2022-12-10T00:36:27;8.07;;;3.80;;
40907;SDS011;51055;59.436;24.778;2022-12-10T00:38:57;7.47;;;3.72;;
40907;SDS011;51055;59.436;24.778;2022-12-10T00:41:25;8.73;;;4.00;;
40907;SDS011;51055;59.436;24.778;2022-12-10T00:43:52;7.38;;;4.00;;
40907;SDS011;51055;59.436;24.778;2022-12-10T00:46:20;9.60;;;4.38;;
40907;SDS011;51055;59.436;24.778;2022-12-10T00:48:48;8.55;;;4.45;;
40907;SDS011;51055;59.436;24.778;2022-12-10T00:51:17;7.53;;;4.20;;
40907;SDS011;51055;59.436;24.778;2022-12-10T00:53:47;9.93;;;4.53;;
40907;SDS011;51055;59.436;24.778;2022-12-10T00:56:18;9.60;;;4.75;;
40907;SDS011;51055;59.436;24.778;2022-12-10T00:58:47;9.98;;;5.13;;
40907;SDS011;51055;59.436;24.778;2022-12-10T01:01:19;8.13;;;4.15;;
40907;SDS011;51055;59.436;24.778;2022-12-10T01:03:53;9.20;;;4.85;;
40907;SDS011;51055;59.436;24.778;2022-12-10T01:06:26;10.60;;;5.15;;
40907;SDS011;51055;59.436;24.778;2022-12-10T01:08:58;9.57;;;4.90;;
40907;SDS011;51055;59.436;24.778;2022-12-10T01:11:31;9.68;;;5.07;;
40907;SDS011;51055;59.436;24.778;2022-12-10T01:14:01;12.45;;;5.40;;
40907;SDS011;51055;59.436;24.778;2022-12-10T01:16:29;8.90;;;5.40;;
40907;SDS011;51055;59.436;24.778;2022-12-10T01:18:57;10.85;;;5.65;;
40907;SDS011;51055;59.436;24.778;2022-12-10T01:21:26;9.63;;;5.60;;
40907;SDS011;51055;59.436;24.778;2022-12-10T01:23:55;10.52;;;5.72;;
40907;SDS011;51055;59.436;24.778;2022-12-10T01:26:24;9.98;;;5.80;;
40907;SDS011;51055;59.436;24.778;2022-12-10T01:28:54;11.30;;;5.95;;
40907;SDS011;51055;59.436;24.778;2022-12-10T01:31:23;8.23;;;4.93;;
40907;SDS011;51055;59.436;24.778;2022-12-10T01:33:53;12.80;;;6.28;;
40907;SDS011;51055;59.436;24.778;2022-12-10T01:36:22;11.95;;;6.47;;
40907;SDS011;51055;59.436;24.778;2022-12-10T01:38:56;13.05;;;6.85;;
40907;SDS011;51055;59.436;24.778;2022-12-10T01:41:25;14.90;;;6.82;;
40907;SDS011;51055;59.436;24.778;2022-12-10T01:43:57;11.07;;;6.10;;
40907;SDS011;51055;59.436;24.778;2022-12-10T01:46:30;12.73;;;6.88;;
40907;SDS011;51055;59.436;24.778;2022-12-10T01:49:01;11.82;;;6.38;;
40907;SDS011;51055;59.436;24.778;2022-12-10T01:51:32;11.98;;;6.38;;
40907;SDS011;51055;59.436;24.778;2022-12-10T01:54:02;14.13;;;7.43;;
40907;SDS011;51055;59.436;24.778;2022-12-10T01:56:31;11.45;;;6.32;;
40907;SDS011;51055;59.436;24.778;2022-12-10T01:59:04;12.43;;;6.72;;
40907;SDS011;51055;59.436;24.778;2022-12-10T02:01:42;9.30;;;5.10;;
40907;SDS011;51055;59.436;24.778;2022-12-10T02:04:19;13.15;;;6.80;;
40907;SDS011;51055;59.436;24.778;2022-12-10T02:07:00;12.25;;;6.47;;
40907;SDS011;51055;59.436;24.778;2022-12-10T02:12:25;11.93;;;5.85;;
40907;SDS011;51055;59.436;24.778;2022-12-10T02:18:01;11.15;;;5.97;;
40907;SDS011;51055;59.436;24.778;2022-12-10T02:20:41;14.35;;;7.10;;
40907;SDS011;51055;59.436;24.778;2022-12-10T02:23:25;10.88;;;6.03;;
40907;SDS011;51055;59.436;24.778;2022-12-10T02:26:17;11.23;;;6.32;;
40907;SDS011;51055;59.436;24.778;2022-12-10T02:28:51;12.13;;;6.18;;
40907;SDS011;51055;59.436;24.778;2022-12-10T02:31:32;10.82;;;6.30;;
40907;SDS011;51055;59.436;24.778;2022-12-10T02:34:02;13.05;;;7.03;;
40907;SDS011;51055;59.436;24.778;2022-12-10T02:36:35;14.43;;;7.15;;
40907;SDS011;51055;59.436;24.778;2022-12-10T02:39:09;14.70;;;7.72;;
40907;SDS011;51055;59.436;24.778;2022-12-10T02:41:44;12.70;;;7.00;;
40907;SDS011;51055;59.436;24.778;2022-12-10T02:44:23;13.48;;;7.45;;
40907;SDS011;51055;59.436;24.778;2022-12-10T02:46:54;14.00;;;7.45;;
40907;SDS011;51055;59.436;24.778;2022-12-10T02:49:23;13.30;;;6.88;;
40907;SDS011;51055;59.436;24.778;2022-12-10T02:51:52;15.85;;;7.70;;
40907;SDS011;51055;59.436;24.778;2022-12-10T02:57:36;13.65;;;7.18;;
40907;SDS011;51055;59.436;24.778;2022-12-10T03:00:21;14.30;;;7.85;;
40907;SDS011;51055;59.436;24.778;2022-12-10T03:08:12;12.48;;;6.90;;
40907;SDS011;51055;59.436;24.778;2022-12-10T03:10:50;13.63;;;7.65;;
40907;SDS011;51055;59.436;24.778;2022-12-10T03:13:48;11.98;;;6.75;;
40907;SDS011;51055;59.436;24.778;2022-12-10T03:16:20;11.52;;;6.70;;
40907;SDS011;51055;59.436;24.778;2022-12-10T03:18:52;11.43;;;6.05;;
40907;SDS011;51055;59.436;24.778;2022-12-10T03:21:24;12.13;;;6.43;;
40907;SDS011;51055;59.436;24.778;2022-12-10T03:23:55;11.80;;;6.07;;
40907;SDS011;51055;59.436;24.778;2022-12-10T03:26:23;12.50;;;6.18;;
40907;SDS011;51055;59.436;24.778;2022-12-10T03:28:54;11.45;;;6.38;;
40907;SDS011;51055;59.436;24.778;2022-12-10T03:31:26;12.85;;;6.25;;
40907;SDS011;51055;59.436;24.778;2022-12-10T03:33:55;12.55;;;6.35;;
40907;SDS011;51055;59.436;24.778;2022-12-10T03:36:23;11.80;;;6.43;;
40907;SDS011;51055;59.436;24.778;2022-12-10T03:38:53;11.50;;;6.40;;
40907;SDS011;51055;59.436;24.778;2022-12-10T03:41:21;12.57;;;6.60;;
40907;SDS011;51055;59.436;24.778;2022-12-10T03:43:55;12.88;;;5.97;;
40907;SDS011;51055;59.436;24.778;2022-12-10T03:46:25;11.15;;;5.95;;
40907;SDS011;51055;59.436;24.778;2022-12-10T03:48:56;11.55;;;6.43;;
40907;SDS011;51055;59.436;24.778;2022-12-10T03:51:24;11.35;;;6.57;;
40907;SDS011;51055;59.436;24.778;2022-12-10T03:53:52;11.93;;;6.97;;
40907;SDS011;51055;59.436;24.778;2022-12-10T03:56:20;13.40;;;7.18;;
40907;SDS011;51055;59.436;24.778;2022-12-10T03:58:48;12.07;;;6.60;;
40907;SDS011;51055;59.436;24.778;2022-12-10T04:01:16;11.98;;;6.80;;
40907;SDS011;51055;59.436;24.778;2022-12-10T04:03:44;10.63;;;6.63;;
40907;SDS011;51055;59.436;24.778;2022-12-10T04:06:13;10.65;;;6.25;;
40907;SDS011;51055;59.436;24.778;2022-12-10T04:08:43;12.82;;;6.38;;
40907;SDS011;51055;59.436;24.778;2022-12-10T04:11:12;9.35;;;4.82;;
40907;SDS011;51055;59.436;24.778;2022-12-10T04:13:41;10.82;;;6.60;;
40907;SDS011;51055;59.436;24.778;2022-12-10T04:16:29;14.23;;;6.90;;
40907;SDS011;51055;59.436;24.778;2022-12-10T04:19:00;11.85;;;6.53;;
40907;SDS011;51055;59.436;24.778;2022-12-10T04:21:30;11.88;;;6.25;;
40907;SDS011;51055;59.436;24.778;2022-12-10T04:24:19;9.33;;;4.93;;
40907;SDS011;51055;59.436;24.778;2022-12-10T04:27:08;12.52;;;6.32;;
40907;SDS011;51055;59.436;24.778;2022-12-10T04:29:39;12.27;;;7.55;;
40907;SDS011;51055;59.436;24.778;2022-12-10T04:32:07;10.23;;;5.32;;
40907;SDS011;51055;59.436;24.778;2022-12-10T04:34:35;13.00;;;7.30;;
40907;SDS011;51055;59.436;24.778;2022-12-10T04:37:03;15.05;;;7.07;;
40907;SDS011;51055;59.436;24.778;2022-12-10T04:39:31;10.07;;;5.35;;
40907;SDS011;51055;59.436;24.778;2022-12-10T04:41:59;10.10;;;5.93;;
40907;SDS011;51055;59.436;24.778;2022-12-10T04:44:28;13.25;;;6.78;;
40907;SDS011;51055;59.436;24.778;2022-12-10T04:46:56;15.65;;;7.43;;
40907;SDS011;51055;59.436;24.778;2022-12-10T04:49:23;12.00;;;6.65;;
40907;SDS011;51055;59.436;24.778;2022-12-10T04:51:51;14.32;;;7.50;;
40907;SDS011;51055;59.436;24.778;2022-12-10T04:54:20;12.93;;;6.30;;
40907;SDS011;51055;59.436;24.778;2022-12-10T04:56:47;15.07;;;6.70;;
40907;SDS011;51055;59.436;24.778;2022-12-10T04:59:15;11.77;;;5.95;;
40907;SDS011;51055;59.436;24.778;2022-12-10T05:01:43;13.25;;;6.03;;
40907;SDS011;51055;59.436;24.778;2022-12-10T05:04:12;13.50;;;6.60;;
40907;SDS011;51055;59.436;24.778;2022-12-10T05:06:43;14.23;;;7.25;;
40907;SDS011;51055;59.436;24.778;2022-12-10T05:09:11;12.13;;;6.38;;
40907;SDS011;51055;59.436;24.778;2022-12-10T05:11:39;10.05;;;5.45;;
40907;SDS011;51055;59.436;24.778;2022-12-10T05:14:08;14.25;;;6.63;;
40907;SDS011;51055;59.436;24.778;2022-12-10T05:16:37;13.10;;;6.32;;
40907;SDS011;51055;59.436;24.778;2022-12-10T05:19:05;14.25;;;6.65;;
40907;SDS011;51055;59.436;24.778;2022-12-10T05:21:33;13.50;;;6.35;;
40907;SDS011;51055;59.436;24.778;2022-12-10T05:24:19;12.40;;;6.90;;
40907;SDS011;51055;59.436;24.778;2022-12-10T05:26:47;12.15;;;6.47;;
40907;SDS011;51055;59.436;24.778;2022-12-10T05:29:18;12.68;;;6.65;;
40907;SDS011;51055;59.436;24.778;2022-12-10T05:31:46;12.38;;;6.70;;
40907;SDS011;51055;59.436;24.778;2022-12-10T05:34:13;12.18;;;6.38;;
40907;SDS011;51055;59.436;24.778;2022-12-10T05:36:41;12.52;;;6.05;;
40907;SDS011;51055;59.436;24.778;2022-12-10T05:39:09;14.13;;;6.78;;
40907;SDS011;51055;59.436;24.778;2022-12-10T05:41:38;13.00;;;6.72;;
40907;SDS011;51055;59.436;24.778;2022-12-10T05:44:06;14.20;;;7.20;;
40907;SDS011;51055;59.436;24.778;2022-12-10T05:46:36;13.63;;;7.32;;
40907;SDS011;51055;59.436;24.778;2022-12-10T05:49:05;12.80;;;6.78;;
40907;SDS011;51055;59.436;24.778;2022-12-10T05:51:34;12.80;;;6.53;;
40907;SDS011;51055;59.436;24.778;2022-12-10T05:54:03;14.25;;;6.68;;
40907;SDS011;51055;59.436;24.778;2022-12-10T05:59:00;8.80;;;5.22;;
40907;SDS011;51055;59.436;24.778;2022-12-10T06:01:31;12.48;;;6.20;;
40907;SDS011;51055;59.436;24.778;2022-12-10T06:04:01;13.45;;;6.70;;
40907;SDS011;51055;59.436;24.778;2022-12-10T06:06:34;14.30;;;6.63;;
40907;SDS011;51055;59.436;24.778;2022-12-10T06:09:04;12.50;;;6.47;;
40907;SDS011;51055;59.436;24.778;2022-12-10T06:11:34;12.90;;;6.57;;
40907;SDS011;51055;59.436;24.778;2022-12-10T06:14:02;10.35;;;5.15;;
40907;SDS011;51055;59.436;24.778;2022-12-10T06:16:30;11.10;;;6.18;;
40907;SDS011;51055;59.436;24.778;2022-12-10T06:18:57;10.15;;;6.03;;
40907;SDS011;51055;59.436;24.778;2022-12-10T06:21:25;12.45;;;6.53;;
40907;SDS011;51055;59.436;24.778;2022-12-10T06:23:53;12.23;;;5.60;;
40907;SDS011;51055;59.436;24.778;2022-12-10T06:26:23;11.23;;;6.30;;
40907;SDS011;51055;59.436;24.778;2022-12-10T06:28:52;11.88;;;6.32;;
40907;SDS011;51055;59.436;24.778;2022-12-10T06:31:21;11.43;;;5.80;;
40907;SDS011;51055;59.436;24.778;2022-12-10T06:33:50;11.30;;;5.97;;
40907;SDS011;51055;59.436;24.778;2022-12-10T06:38:47;13.63;;;5.97;;
40907;SDS011;51055;59.436;24.778;2022-12-10T06:41:15;11.60;;;6.22;;
40907;SDS011;51055;59.436;24.778;2022-12-10T06:43:45;12.40;;;6.43;;
40907;SDS011;51055;59.436;24.778;2022-12-10T06:46:14;13.07;;;6.05;;
40907;SDS011;51055;59.436;24.778;2022-12-10T06:48:43;13.00;;;6.78;;
40907;SDS011;51055;59.436;24.778;2022-12-10T06:51:11;12.82;;;6.47;;
40907;SDS011;51055;59.436;24.778;2022-12-10T06:53:40;12.13;;;6.22;;
40907;SDS011;51055;59.436;24.778;2022-12-10T06:56:10;12.52;;;6.25;;
40907;SDS011;51055;59.436;24.778;2022-12-10T06:58:41;12.07;;;7.10;;
40907;SDS011;51055;59.436;24.778;2022-12-10T07:06:07;13.52;;;6.20;;
40907;SDS011;51055;59.436;24.778;2022-12-10T07:08:37;13.20;;;6.05;;
40907;SDS011;51055;59.436;24.778;2022-12-10T07:11:06;10.13;;;5.80;;
40907;SDS011;51055;59.436;24.778;2022-12-10T07:13:35;13.40;;;6.15;;
40907;SDS011;51055;59.436;24.778;2022-12-10T07:16:15;15.07;;;6.38;;
40907;SDS011;51055;59.436;24.778;2022-12-10T07:18:45;11.43;;;5.55;;
40907;SDS011;51055;59.436;24.778;2022-12-10T07:21:28;12.20;;;5.75;;
40907;SDS011;51055;59.436;24.778;2022-12-10T07:24:00;11.93;;;6.47;;
40907;SDS011;51055;59.436;24.778;2022-12-10T07:26:32;10.18;;;5.32;;
40907;SDS011;51055;59.436;24.778;2022-12-10T07:29:02;12.50;;;5.70;;
40907;SDS011;51055;59.436;24.778;2022-12-10T07:31:31;12.63;;;5.63;;
40907;SDS011;51055;59.436;24.778;2022-12-10T07:36:27;9.38;;;5.10;;
40907;SDS011;51055;59.436;24.778;2022-12-10T07:38:55;8.67;;;4.27;;
40907;SDS011;51055;59.436;24.778;2022-12-10T07:41:23;10.13;;;5.20;;
40907;SDS011;51055;59.436;24.778;2022-12-10T07:43:52;9.50;;;4.70;;
40907;SDS011;51055;59.436;24.778;2022-12-10T07:46:21;10.68;;;4.93;;
40907;SDS011;51055;59.436;24.778;2022-12-10T07:48:51;10.70;;;5.35;;
40907;SDS011;51055;59.436;24.778;2022-12-10T07:51:19;11.35;;;5.80;;
40907;SDS011;51055;59.436;24.778;2022-12-10T07:53:48;11.50;;;5.75;;
40907;SDS011;51055;59.436;24.778;2022-12-10T07:56:19;10.63;;;5.53;;
40907;SDS011;51055;59.436;24.778;2022-12-10T07:58:49;12.57;;;6.10;;
40907;SDS011;51055;59.436;24.778;2022-12-10T08:01:18;11.40;;;6.35;;
40907;SDS011;51055;59.436;24.778;2022-12-10T08:03:47;10.82;;;5.80;;
40907;SDS011;51055;59.436;24.778;2022-12-10T08:06:16;10.90;;;6.05;;
40907;SDS011;51055;59.436;24.778;2022-12-10T08:08:46;12.80;;;5.70;;
40907;SDS011;51055;59.436;24.778;2022-12-10T08:11:15;10.27;;;5.50;;
40907;SDS011;51055;59.436;24.778;2022-12-10T08:13:44;11.20;;;5.47;;
40907;SDS011;51055;59.436;24.778;2022-12-10T08:16:20;10.05;;;5.50;;
40907;SDS011;51055;59.436;24.778;2022-12-10T08:18:53;10.13;;;5.70;;
40907;SDS011;51055;59.436;24.778;2022-12-10T08:21:24;14.05;;;5.68;;
40907;SDS011;51055;59.436;24.778;2022-12-10T08:23:54;11.50;;;5.45;;
40907;SDS011;51055;59.436;24.778;2022-12-10T08:26:23;9.25;;;4.43;;
40907;SDS011;51055;59.436;24.778;2022-12-10T08:28:53;9.52;;;5.38;;
40907;SDS011;51055;59.436;24.778;2022-12-10T08:33:49;10.18;;;5.03;;
40907;SDS011;51055;59.436;24.778;2022-12-10T08:36:17;10.35;;;5.25;;
40907;SDS011;51055;59.436;24.778;2022-12-10T08:38:46;12.93;;;6.00;;
40907;SDS011;51055;59.436;24.778;2022-12-10T08:43:42;9.57;;;5.30;;
40907;SDS011;51055;59.436;24.778;2022-12-10T08:46:11;10.52;;;5.40;;
40907;SDS011;51055;59.436;24.778;2022-12-10T08:48:40;9.95;;;5.43;;
40907;SDS011;51055;59.436;24.778;2022-12-10T08:51:10;8.27;;;4.63;;
40907;SDS011;51055;59.436;24.778;2022-12-10T08:53:40;9.52;;;5.00;;
40907;SDS011;51055;59.436;24.778;2022-12-10T08:56:07;9.88;;;5.10;;
40907;SDS011;51055;59.436;24.778;2022-12-10T08:58:36;6.43;;;3.80;;
40907;SDS011;51055;59.436;24.778;2022-12-10T09:03:33;9.40;;;5.10;;
40907;SDS011;51055;59.436;24.778;2022-12-10T09:06:02;9.18;;;3.75;;
40907;SDS011;51055;59.436;24.778;2022-12-10T09:08:33;9.75;;;4.88;;
40907;SDS011;51055;59.436;24.778;2022-12-10T09:11:08;7.60;;;4.00;;
40907;SDS011;51055;59.436;24.778;2022-12-10T09:13:49;6.28;;;3.25;;
40907;SDS011;51055;59.436;24.778;2022-12-10T09:16:19;7.97;;;4.13;;
40907;SDS011;51055;59.436;24.778;2022-12-10T09:19:01;7.90;;;3.90;;
40907;SDS011;51055;59.436;24.778;2022-12-10T09:21:35;9.95;;;4.03;;
40907;SDS011;51055;59.436;24.778;2022-12-10T09:24:05;7.85;;;3.78;;
40907;SDS011;51055;59.436;24.778;2022-12-10T09:26:36;8.52;;;4.18;;
40907;SDS011;51055;59.436;24.778;2022-12-10T09:29:08;9.73;;;4.15;;
40907;SDS011;51055;59.436;24.778;2022-12-10T09:31:39;7.80;;;3.53;;
40907;SDS011;51055;59.436;24.778;2022-12-10T09:34:13;8.27;;;4.47;;
40907;SDS011;51055;59.436;24.778;2022-12-10T09:37:15;7.07;;;2.97;;
40907;SDS011;51055;59.436;24.778;2022-12-10T09:39:55;12.07;;;5.35;;
40907;SDS011;51055;59.436;24.778;2022-12-10T09:54:17;9.40;;;4.45;;
40907;SDS011;51055;59.436;24.778;2022-12-10T09:56:55;8.98;;;4.47;;
40907;SDS011;51055;59.436;24.778;2022-12-10T09:59:36;8.88;;;4.97;;
40907;SDS011;51055;59.436;24.778;2022-12-10T10:07:45;16.17;;;8.23;;
40907;SDS011;51055;59.436;24.778;2022-12-10T10:12:54;17.40;;;10.43;;
40907;SDS011;51055;59.436;24.778;2022-12-10T10:15:29;11.25;;;6.05;;
40907;SDS011;51055;59.436;24.778;2022-12-10T10:20:39;11.35;;;5.38;;
40907;SDS011;51055;59.436;24.778;2022-12-10T10:23:07;9.00;;;4.85;;
40907;SDS011;51055;59.436;24.778;2022-12-10T10:25:39;9.50;;;4.90;;
40907;SDS011;51055;59.436;24.778;2022-12-10T10:28:10;10.07;;;5.15;;
40907;SDS011;51055;59.436;24.778;2022-12-10T10:30:42;9.80;;;5.18;;
40907;SDS011;51055;59.436;24.778;2022-12-10T10:33:12;9.00;;;4.43;;
40907;SDS011;51055;59.436;24.778;2022-12-10T10:35:49;9.40;;;4.32;;
40907;SDS011;51055;59.436;24.778;2022-12-10T10:38:22;7.50;;;4.20;;
40907;SDS011;51055;59.436;24.778;2022-12-10T10:40:54;8.05;;;4.07;;
40907;SDS011;51055;59.436;24.778;2022-12-10T10:43:28;8.77;;;4.72;;
40907;SDS011;51055;59.436;24.778;2022-12-10T10:46:04;8.73;;;4.45;;
40907;SDS011;51055;59.436;24.778;2022-12-10T10:48:38;5.78;;;3.20;;
40907;SDS011;51055;59.436;24.778;2022-12-10T10:56:06;7.43;;;3.72;;
40907;SDS011;51055;59.436;24.778;2022-12-10T10:58:44;10.73;;;5.45;;
40907;SDS011;51055;59.436;24.778;2022-12-10T11:01:19;8.95;;;3.83;;
40907;SDS011;51055;59.436;24.778;2022-12-10T11:03:57;7.28;;;3.72;;
40907;SDS011;51055;59.436;24.778;2022-12-10T11:06:26;8.23;;;4.13;;
40907;SDS011;51055;59.436;24.778;2022-12-10T11:08:55;8.88;;;4.60;;
40907;SDS011;51055;59.436;24.778;2022-12-10T11:11:35;7.75;;;3.70;;
40907;SDS011;51055;59.436;24.778;2022-12-10T11:14:29;7.95;;;3.72;;
40907;SDS011;51055;59.436;24.778;2022-12-10T11:22:27;8.32;;;3.55;;
40907;SDS011;51055;59.436;24.778;2022-12-10T11:25:00;7.82;;;3.65;;
40907;SDS011;51055;59.436;24.778;2022-12-10T11:32:46;7.30;;;3.53;;
40907;SDS011;51055;59.436;24.778;2022-12-10T11:59:59;8.55;;;4.20;;
40907;SDS011;51055;59.436;24.778;2022-12-10T12:05:40;8.57;;;4.38;;
40907;SDS011;51055;59.436;24.778;2022-12-10T12:16:34;7.28;;;3.33;;
40907;SDS011;51055;59.436;24.778;2022-12-10T12:19:13;7.13;;;3.00;;
40907;SDS011;51055;59.436;24.778;2022-12-10T12:21:45;8.10;;;3.90;;
40907;SDS011;51055;59.436;24.778;2022-12-10T12:26:50;9.70;;;3.75;;
40907;SDS011;51055;59.436;24.778;2022-12-10T12:29:45;7.32;;;3.70;;
40907;SDS011;51055;59.436;24.778;2022-12-10T12:40:55;6.70;;;3.20;;
40907;SDS011;51055;59.436;24.778;2022-12-10T12:46:09;9.63;;;5.10;;
40907;SDS011;51055;59.436;24.778;2022-12-10T12:49:00;6.45;;;3.33;;
40907;SDS011;51055;59.436;24.778;2022-12-10T12:51:33;8.80;;;3.92;;
40907;SDS011;51055;59.436;24.778;2022-12-10T12:54:10;8.45;;;4.10;;
40907;SDS011;51055;59.436;24.778;2022-12-10T12:59:30;8.52;;;4.13;;
40907;SDS011;51055;59.436;24.778;2022-12-10T13:02:29;5.43;;;2.72;;
40907;SDS011;51055;59.436;24.778;2022-12-10T13:05:23;7.38;;;3.35;;
40907;SDS011;51055;59.436;24.778;2022-12-10T13:15:55;6.68;;;3.00;;
40907;SDS011;51055;59.436;24.778;2022-12-10T13:18:36;7.43;;;3.47;;
40907;SDS011;51055;59.436;24.778;2022-12-10T13:24:05;7.82;;;3.33;;
40907;SDS011;51055;59.436;24.778;2022-12-10T13:26:40;7.20;;;3.60;;
40907;SDS011;51055;59.436;24.778;2022-12-10T13:29:28;13.80;;;5.70;;
40907;SDS011;51055;59.436;24.778;2022-12-10T13:32:00;12.57;;;5.72;;
40907;SDS011;51055;59.436;24.778;2022-12-10T13:34:32;10.05;;;4.95;;
40907;SDS011;51055;59.436;24.778;2022-12-10T13:37:10;12.52;;;6.05;;
40907;SDS011;51055;59.436;24.778;2022-12-10T13:42:30;7.38;;;3.08;;
40907;SDS011;51055;59.436;24.778;2022-12-10T13:47:50;7.30;;;3.30;;
40907;SDS011;51055;59.436;24.778;2022-12-10T13:50:39;8.80;;;3.30;;
40907;SDS011;51055;59.436;24.778;2022-12-10T13:59:30;8.38;;;3.78;;
40907;SDS011;51055;59.436;24.778;2022-12-10T14:05:04;8.40;;;4.18;;
40907;SDS011;51055;59.436;24.778;2022-12-10T14:07:51;7.72;;;3.88;;
40907;SDS011;51055;59.436;24.778;2022-12-10T14:10:26;6.40;;;3.35;;
40907;SDS011;51055;59.436;24.778;2022-12-10T14:12:59;12.57;;;5.30;;
40907;SDS011;51055;59.436;24.778;2022-12-10T14:15:28;7.47;;;3.50;;
40907;SDS011;51055;59.436;24.778;2022-12-10T14:17:59;9.98;;;5.00;;
40907;SDS011;51055;59.436;24.778;2022-12-10T14:20:30;6.53;;;3.75;;
40907;SDS011;51055;59.436;24.778;2022-12-10T14:23:05;6.47;;;3.13;;
40907;SDS011;51055;59.436;24.778;2022-12-10T14:26:28;5.88;;;2.97;;
40907;SDS011;51055;59.436;24.778;2022-12-10T14:31:44;6.28;;;3.10;;
40907;SDS011;51055;59.436;24.778;2022-12-10T14:34:16;11.15;;;3.35;;
40907;SDS011;51055;59.436;24.778;2022-12-10T14:36:48;6.25;;;2.90;;
40907;SDS011;51055;59.436;24.778;2022-12-10T14:39:19;7.22;;;3.33;;
40907;SDS011;51055;59.436;24.778;2022-12-10T14:41:52;7.78;;;3.00;;
40907;SDS011;51055;59.436;24.778;2022-12-10T14:44:22;6.45;;;3.25;;
40907;SDS011;51055;59.436;24.778;2022-12-10T14:46:50;6.40;;;3.00;;
40907;SDS011;51055;59.436;24.778;2022-12-10T14:49:20;6.00;;;2.72;;
40907;SDS011;51055;59.436;24.778;2022-12-10T14:51:51;6.40;;;2.70;;
40907;SDS011;51055;59.436;24.778;2022-12-10T14:54:29;5.67;;;2.67;;
40907;SDS011;51055;59.436;24.778;2022-12-10T14:57:05;7.13;;;3.80;;
40907;SDS011;51055;59.436;24.778;2022-12-10T15:02:21;6.53;;;2.63;;
40907;SDS011;51055;59.436;24.778;2022-12-10T15:04:53;5.85;;;2.50;;
40907;SDS011;51055;59.436;24.778;2022-12-10T15:07:23;6.18;;;2.88;;
40907;SDS011;51055;59.436;24.778;2022-12-10T15:09:52;6.20;;;2.92;;
40907;SDS011;51055;59.436;24.778;2022-12-10T15:12:36;6.05;;;2.65;;
40907;SDS011;51055;59.436;24.778;2022-12-10T15:20:29;7.72;;;2.88;;
40907;SDS011;51055;59.436;24.778;2022-12-10T15:33:58;7.20;;;3.30;;
40907;SDS011;51055;59.436;24.778;2022-12-10T15:36:35;6.72;;;3.38;;
40907;SDS011;51055;59.436;24.778;2022-12-10T15:41:47;8.43;;;3.92;;
40907;SDS011;51055;59.436;24.778;2022-12-10T15:49:45;7.30;;;4.22;;
40907;SDS011;51055;59.436;24.778;2022-12-10T15:52:18;7.88;;;4.38;;
40907;SDS011;51055;59.436;24.778;2022-12-10T15:54:49;8.50;;;4.20;;
40907;SDS011;51055;59.436;24.778;2022-12-10T15:57:31;9.98;;;4.32;;
40907;SDS011;51055;59.436;24.778;2022-12-10T16:00:03;8.52;;;4.30;;
40907;SDS011;51055;59.436;24.778;2022-12-10T16:07:47;8.45;;;4.53;;
40907;SDS011;51055;59.436;24.778;2022-12-10T16:10:17;9.48;;;5.30;;
40907;SDS011;51055;59.436;24.778;2022-12-10T16:12:48;8.68;;;4.93;;
40907;SDS011;51055;59.436;24.778;2022-12-10T16:15:23;8.95;;;4.78;;
40907;SDS011;51055;59.436;24.778;2022-12-10T16:17:54;10.85;;;6.53;;
40907;SDS011;51055;59.436;24.778;2022-12-10T16:20:29;6.50;;;3.58;;
40907;SDS011;51055;59.436;24.778;2022-12-10T16:22:58;9.07;;;4.43;;
40907;SDS011;51055;59.436;24.778;2022-12-10T16:25:28;8.77;;;4.43;;
40907;SDS011;51055;59.436;24.778;2022-12-10T16:27:57;8.85;;;4.40;;
40907;SDS011;51055;59.436;24.778;2022-12-10T16:30:29;9.30;;;4.28;;
40907;SDS011;51055;59.436;24.778;2022-12-10T16:33:07;8.73;;;4.32;;
40907;SDS011;51055;59.436;24.778;2022-12-10T16:35:36;7.57;;;4.38;;
40907;SDS011;51055;59.436;24.778;2022-12-10T16:38:04;8.38;;;4.25;;
40907;SDS011;51055;59.436;24.778;2022-12-10T16:40:38;9.60;;;4.40;;
40907;SDS011;51055;59.436;24.778;2022-12-10T16:43:14;9.35;;;4.47;;
40907;SDS011;51055;59.436;24.778;2022-12-10T16:45:46;8.75;;;4.25;;
40907;SDS011;51055;59.436;24.778;2022-12-10T16:48:15;9.75;;;4.65;;
40907;SDS011;51055;59.436;24.778;2022-12-10T16:50:44;9.82;;;4.93;;
40907;SDS011;51055;59.436;24.778;2022-12-10T16:55:45;8.95;;;4.45;;
40907;SDS011;51055;59.436;24.778;2022-12-10T16:58:13;9.30;;;4.03;;
40907;SDS011;51055;59.436;24.778;2022-12-10T17:00:47;9.60;;;5.07;;
40907;SDS011;51055;59.436;24.778;2022-12-10T17:03:17;9.68;;;4.68;;
40907;SDS011;51055;59.436;24.778;2022-12-10T17:05:59;10.43;;;5.05;;
40907;SDS011;51055;59.436;24.778;2022-12-10T17:08:28;9.02;;;5.63;;
40907;SDS011;51055;59.436;24.778;2022-12-10T17:10:56;7.80;;;4.65;;
40907;SDS011;51055;59.436;24.778;2022-12-10T17:13:43;10.13;;;5.20;;
40907;SDS011;51055;59.436;24.778;2022-12-10T17:16:12;9.60;;;4.80;;
40907;SDS011;51055;59.436;24.778;2022-12-10T17:18:44;9.45;;;4.78;;
40907;SDS011;51055;59.436;24.778;2022-12-10T17:21:12;10.52;;;5.50;;
40907;SDS011;51055;59.436;24.778;2022-12-10T17:23:40;11.77;;;5.25;;
40907;SDS011;51055;59.436;24.778;2022-12-10T17:26:09;11.80;;;5.68;;
40907;SDS011;51055;59.436;24.778;2022-12-10T17:28:51;12.07;;;6.00;;
40907;SDS011;51055;59.436;24.778;2022-12-10T17:31:22;12.18;;;5.85;;
40907;SDS011;51055;59.436;24.778;2022-12-10T17:33:49;12.70;;;5.82;;
40907;SDS011;51055;59.436;24.778;2022-12-10T17:36:18;10.35;;;5.15;;
40907;SDS011;51055;59.436;24.778;2022-12-10T17:38:47;9.55;;;4.80;;
40907;SDS011;51055;59.436;24.778;2022-12-10T17:41:14;12.15;;;5.43;;
40907;SDS011;51055;59.436;24.778;2022-12-10T17:43:43;10.68;;;5.53;;
40907;SDS011;51055;59.436;24.778;2022-12-10T17:46:11;11.38;;;4.82;;
40907;SDS011;51055;59.436;24.778;2022-12-10T17:51:08;10.85;;;4.75;;
40907;SDS011;51055;59.436;24.778;2022-12-10T17:53:39;11.00;;;5.40;;
40907;SDS011;51055;59.436;24.778;2022-12-10T17:56:14;10.30;;;5.22;;
40907;SDS011;51055;59.436;24.778;2022-12-10T17:58:45;8.23;;;4.10;;
40907;SDS011;51055;59.436;24.778;2022-12-10T18:01:14;10.52;;;5.03;;
40907;SDS011;51055;59.436;24.778;2022-12-10T18:03:43;12.20;;;4.88;;
40907;SDS011;51055;59.436;24.778;2022-12-10T18:06:15;8.43;;;4.07;;
40907;SDS011;51055;59.436;24.778;2022-12-10T18:08:46;11.73;;;5.03;;
40907;SDS011;51055;59.436;24.778;2022-12-10T18:13:44;11.82;;;5.20;;
40907;SDS011;51055;59.436;24.778;2022-12-10T18:16:16;12.23;;;5.43;;